sensor_id;sensor_type;location;lat;lon;timestamp;P1;durP1;ratioP1;P2;durP2;ratioP2
57663;SDS011;43493;53.098;6.064;2022-10-13T00:00:30;27.30;;;15.23;;
57663;SDS011;43493;53.098;6.064;2022-10-13T00:03:00;24.27;;;14.07;;
57663;SDS011;43493;53.098;6.064;2022-10-13T00:05:26;24.47;;;14.83;;
57663;SDS011;43493;53.098;6.064;2022-10-13T00:07:53;25.10;;;15.27;;
57663;SDS011;43493;53.098;6.064;2022-10-13T00:10:19;20.73;;;14.10;;
57663;SDS011;43493;53.098;6.064;2022-10-13T00:12:44;23.00;;;14.30;;
57663;SDS011;43493;53.098;6.064;2022-10-13T00:15:10;24.67;;;14.73;;
57663;SDS011;43493;53.098;6.064;2022-10-13T00:17:36;26.03;;;14.50;;
57663;SDS011;43493;53.098;6.064;2022-10-13T00:20:03;29.13;;;14.70;;
57663;SDS011;43493;53.098;6.064;2022-10-13T00:22:30;24.93;;;15.03;;
57663;SDS011;43493;53.098;6.064;2022-10-13T00:24:56;26.80;;;15.60;;
57663;SDS011;43493;53.098;6.064;2022-10-13T00:27:21;24.53;;;15.30;;
57663;SDS011;43493;53.098;6.064;2022-10-13T00:29:47;22.47;;;14.80;;
57663;SDS011;43493;53.098;6.064;2022-10-13T00:32:13;30.20;;;15.73;;
57663;SDS011;43493;53.098;6.064;2022-10-13T00:34:39;22.30;;;14.33;;
57663;SDS011;43493;53.098;6.064;2022-10-13T00:37:05;23.53;;;14.67;;
57663;SDS011;43493;53.098;6.064;2022-10-13T00:39:30;25.97;;;15.20;;
57663;SDS011;43493;53.098;6.064;2022-10-13T00:41:57;27.73;;;15.17;;
57663;SDS011;43493;53.098;6.064;2022-10-13T00:50:03;27.27;;;15.45;;
57663;SDS011;43493;53.098;6.064;2022-10-13T00:52:31;26.10;;;14.63;;
57663;SDS011;43493;53.098;6.064;2022-10-13T00:54:57;23.83;;;14.53;;
57663;SDS011;43493;53.098;6.064;2022-10-13T00:57:24;30.37;;;15.30;;
57663;SDS011;43493;53.098;6.064;2022-10-13T00:59:50;33.03;;;16.03;;
57663;SDS011;43493;53.098;6.064;2022-10-13T01:02:16;37.17;;;16.13;;
57663;SDS011;43493;53.098;6.064;2022-10-13T01:04:43;27.43;;;14.03;;
57663;SDS011;43493;53.098;6.064;2022-10-13T01:07:12;25.27;;;15.10;;
57663;SDS011;43493;53.098;6.064;2022-10-13T01:09:40;25.50;;;14.93;;
57663;SDS011;43493;53.098;6.064;2022-10-13T01:12:20;28.07;;;15.80;;
57663;SDS011;43493;53.098;6.064;2022-10-13T01:14:58;23.40;;;15.60;;
57663;SDS011;43493;53.098;6.064;2022-10-13T01:30:50;27.37;;;15.90;;
57663;SDS011;43493;53.098;6.064;2022-10-13T01:33:43;27.13;;;14.83;;
57663;SDS011;43493;53.098;6.064;2022-10-13T01:41:39;26.63;;;15.03;;
57663;SDS011;43493;53.098;6.064;2022-10-13T01:44:10;24.80;;;15.67;;
57663;SDS011;43493;53.098;6.064;2022-10-13T01:46:59;26.50;;;14.93;;
57663;SDS011;43493;53.098;6.064;2022-10-13T01:49:27;25.70;;;15.97;;
57663;SDS011;43493;53.098;6.064;2022-10-13T01:51:58;25.43;;;14.43;;
57663;SDS011;43493;53.098;6.064;2022-10-13T01:54:27;29.03;;;13.97;;
57663;SDS011;43493;53.098;6.064;2022-10-13T01:56:53;27.37;;;14.97;;
57663;SDS011;43493;53.098;6.064;2022-10-13T01:59:19;28.87;;;15.63;;
57663;SDS011;43493;53.098;6.064;2022-10-13T02:10:18;30.23;;;14.73;;
57663;SDS011;43493;53.098;6.064;2022-10-13T02:13:05;27.97;;;13.60;;
57663;SDS011;43493;53.098;6.064;2022-10-13T02:15:43;22.70;;;13.60;;
57663;SDS011;43493;53.098;6.064;2022-10-13T02:18:13;25.23;;;14.57;;
57663;SDS011;43493;53.098;6.064;2022-10-13T02:20:41;27.40;;;15.53;;
57663;SDS011;43493;53.098;6.064;2022-10-13T02:23:09;23.23;;;13.40;;
57663;SDS011;43493;53.098;6.064;2022-10-13T02:25:37;24.97;;;14.13;;
57663;SDS011;43493;53.098;6.064;2022-10-13T02:28:04;19.47;;;12.63;;
57663;SDS011;43493;53.098;6.064;2022-10-13T02:30:30;22.87;;;14.63;;
57663;SDS011;43493;53.098;6.064;2022-10-13T02:32:57;24.13;;;13.90;;
57663;SDS011;43493;53.098;6.064;2022-10-13T02:35:24;23.93;;;14.33;;
57663;SDS011;43493;53.098;6.064;2022-10-13T02:37:50;22.93;;;14.70;;
57663;SDS011;43493;53.098;6.064;2022-10-13T02:40:16;23.70;;;14.03;;
57663;SDS011;43493;53.098;6.064;2022-10-13T02:42:42;24.03;;;14.13;;
57663;SDS011;43493;53.098;6.064;2022-10-13T02:45:08;20.63;;;13.67;;
57663;SDS011;43493;53.098;6.064;2022-10-13T02:47:34;24.23;;;14.93;;
57663;SDS011;43493;53.098;6.064;2022-10-13T02:50:00;22.07;;;13.47;;
57663;SDS011;43493;53.098;6.064;2022-10-13T02:52:25;26.57;;;14.10;;
57663;SDS011;43493;53.098;6.064;2022-10-13T02:54:51;28.07;;;16.20;;
57663;SDS011;43493;53.098;6.064;2022-10-13T02:57:17;24.63;;;14.57;;
57663;SDS011;43493;53.098;6.064;2022-10-13T02:59:43;27.90;;;15.17;;
57663;SDS011;43493;53.098;6.064;2022-10-13T03:02:08;26.97;;;15.07;;
57663;SDS011;43493;53.098;6.064;2022-10-13T03:04:34;26.70;;;15.97;;
57663;SDS011;43493;53.098;6.064;2022-10-13T03:07:00;27.43;;;14.63;;
57663;SDS011;43493;53.098;6.064;2022-10-13T03:09:26;24.53;;;14.40;;
57663;SDS011;43493;53.098;6.064;2022-10-13T03:11:51;25.70;;;15.80;;
57663;SDS011;43493;53.098;6.064;2022-10-13T03:14:17;25.80;;;16.10;;
57663;SDS011;43493;53.098;6.064;2022-10-13T03:16:43;24.93;;;15.97;;
57663;SDS011;43493;53.098;6.064;2022-10-13T03:19:09;25.13;;;16.33;;
57663;SDS011;43493;53.098;6.064;2022-10-13T03:21:36;26.63;;;16.93;;
57663;SDS011;43493;53.098;6.064;2022-10-13T03:24:04;27.47;;;16.37;;
57663;SDS011;43493;53.098;6.064;2022-10-13T03:26:30;26.13;;;16.87;;
57663;SDS011;43493;53.098;6.064;2022-10-13T03:28:57;26.87;;;16.70;;
57663;SDS011;43493;53.098;6.064;2022-10-13T03:31:22;27.47;;;16.97;;
57663;SDS011;43493;53.098;6.064;2022-10-13T03:33:49;23.37;;;16.43;;
57663;SDS011;43493;53.098;6.064;2022-10-13T03:36:15;27.27;;;15.63;;
57663;SDS011;43493;53.098;6.064;2022-10-13T03:38:42;29.70;;;18.03;;
57663;SDS011;43493;53.098;6.064;2022-10-13T03:41:12;27.90;;;17.27;;
57663;SDS011;43493;53.098;6.064;2022-10-13T03:43:39;29.87;;;19.50;;
57663;SDS011;43493;53.098;6.064;2022-10-13T03:46:06;33.43;;;19.30;;
57663;SDS011;43493;53.098;6.064;2022-10-13T03:48:34;29.40;;;19.57;;
57663;SDS011;43493;53.098;6.064;2022-10-13T03:51:08;31.67;;;20.70;;
57663;SDS011;43493;53.098;6.064;2022-10-13T03:53:36;31.40;;;19.15;;
57663;SDS011;43493;53.098;6.064;2022-10-13T03:56:02;29.13;;;19.33;;
57663;SDS011;43493;53.098;6.064;2022-10-13T03:58:28;33.67;;;20.17;;
57663;SDS011;43493;53.098;6.064;2022-10-13T04:00:54;29.00;;;18.43;;
57663;SDS011;43493;53.098;6.064;2022-10-13T04:03:21;33.33;;;19.73;;
57663;SDS011;43493;53.098;6.064;2022-10-13T04:05:48;28.50;;;18.60;;
57663;SDS011;43493;53.098;6.064;2022-10-13T04:08:14;32.33;;;18.77;;
57663;SDS011;43493;53.098;6.064;2022-10-13T04:10:40;36.20;;;19.53;;
57663;SDS011;43493;53.098;6.064;2022-10-13T04:13:06;33.50;;;20.23;;
57663;SDS011;43493;53.098;6.064;2022-10-13T04:15:35;28.83;;;18.97;;
57663;SDS011;43493;53.098;6.064;2022-10-13T04:18:02;28.43;;;20.17;;
57663;SDS011;43493;53.098;6.064;2022-10-13T04:20:29;26.40;;;19.30;;
57663;SDS011;43493;53.098;6.064;2022-10-13T04:22:55;28.53;;;18.97;;
57663;SDS011;43493;53.098;6.064;2022-10-13T04:25:20;32.93;;;20.73;;
57663;SDS011;43493;53.098;6.064;2022-10-13T04:27:46;34.73;;;20.50;;
57663;SDS011;43493;53.098;6.064;2022-10-13T04:30:13;35.33;;;21.43;;
57663;SDS011;43493;53.098;6.064;2022-10-13T04:32:38;36.27;;;22.70;;
57663;SDS011;43493;53.098;6.064;2022-10-13T04:35:04;37.73;;;22.33;;
57663;SDS011;43493;53.098;6.064;2022-10-13T04:37:30;38.13;;;22.07;;
57663;SDS011;43493;53.098;6.064;2022-10-13T04:39:56;37.23;;;22.30;;
57663;SDS011;43493;53.098;6.064;2022-10-13T04:42:22;40.13;;;25.40;;
57663;SDS011;43493;53.098;6.064;2022-10-13T04:44:47;41.60;;;25.30;;
57663;SDS011;43493;53.098;6.064;2022-10-13T04:47:13;41.00;;;25.70;;
57663;SDS011;43493;53.098;6.064;2022-10-13T04:49:39;38.03;;;22.77;;
57663;SDS011;43493;53.098;6.064;2022-10-13T04:52:04;41.43;;;25.03;;
57663;SDS011;43493;53.098;6.064;2022-10-13T04:54:30;35.30;;;24.83;;
57663;SDS011;43493;53.098;6.064;2022-10-13T04:56:56;32.43;;;21.50;;
57663;SDS011;43493;53.098;6.064;2022-10-13T04:59:23;37.20;;;26.27;;
57663;SDS011;43493;53.098;6.064;2022-10-13T05:01:49;35.37;;;24.17;;
57663;SDS011;43493;53.098;6.064;2022-10-13T05:04:14;38.73;;;26.40;;
57663;SDS011;43493;53.098;6.064;2022-10-13T05:06:40;32.67;;;23.73;;
57663;SDS011;43493;53.098;6.064;2022-10-13T05:09:08;36.90;;;23.30;;
57663;SDS011;43493;53.098;6.064;2022-10-13T05:11:38;38.53;;;25.80;;
57663;SDS011;43493;53.098;6.064;2022-10-13T05:14:03;40.27;;;23.67;;
57663;SDS011;43493;53.098;6.064;2022-10-13T05:16:29;50.93;;;28.33;;
57663;SDS011;43493;53.098;6.064;2022-10-13T05:18:55;39.27;;;25.63;;
57663;SDS011;43493;53.098;6.064;2022-10-13T05:21:22;37.40;;;24.60;;
57663;SDS011;43493;53.098;6.064;2022-10-13T05:23:49;44.30;;;28.27;;
57663;SDS011;43493;53.098;6.064;2022-10-13T05:26:20;42.30;;;27.57;;
57663;SDS011;43493;53.098;6.064;2022-10-13T05:28:59;44.17;;;26.93;;
57663;SDS011;43493;53.098;6.064;2022-10-13T05:31:26;39.93;;;25.87;;
57663;SDS011;43493;53.098;6.064;2022-10-13T05:33:54;37.23;;;26.40;;
57663;SDS011;43493;53.098;6.064;2022-10-13T05:36:21;46.00;;;28.63;;
57663;SDS011;43493;53.098;6.064;2022-10-13T05:38:51;47.77;;;29.47;;
57663;SDS011;43493;53.098;6.064;2022-10-13T05:41:22;42.37;;;26.50;;
57663;SDS011;43493;53.098;6.064;2022-10-13T05:43:49;51.53;;;29.03;;
57663;SDS011;43493;53.098;6.064;2022-10-13T05:46:17;42.67;;;26.07;;
57663;SDS011;43493;53.098;6.064;2022-10-13T05:48:43;48.50;;;30.47;;
57663;SDS011;43493;53.098;6.064;2022-10-13T05:51:13;48.73;;;29.13;;
57663;SDS011;43493;53.098;6.064;2022-10-13T05:53:49;47.30;;;30.83;;
57663;SDS011;43493;53.098;6.064;2022-10-13T05:56:22;46.50;;;28.70;;
57663;SDS011;43493;53.098;6.064;2022-10-13T05:58:53;37.90;;;26.67;;
57663;SDS011;43493;53.098;6.064;2022-10-13T06:01:22;44.67;;;27.87;;
57663;SDS011;43493;53.098;6.064;2022-10-13T06:03:51;53.13;;;31.90;;
57663;SDS011;43493;53.098;6.064;2022-10-13T06:06:19;37.73;;;24.67;;
57663;SDS011;43493;53.098;6.064;2022-10-13T06:08:48;44.83;;;28.90;;
57663;SDS011;43493;53.098;6.064;2022-10-13T06:11:14;41.27;;;27.17;;
57663;SDS011;43493;53.098;6.064;2022-10-13T06:13:41;39.43;;;26.83;;
57663;SDS011;43493;53.098;6.064;2022-10-13T06:16:06;40.73;;;26.57;;
57663;SDS011;43493;53.098;6.064;2022-10-13T06:18:32;39.90;;;26.50;;
57663;SDS011;43493;53.098;6.064;2022-10-13T06:20:58;43.47;;;30.20;;
57663;SDS011;43493;53.098;6.064;2022-10-13T06:23:23;42.93;;;29.17;;
57663;SDS011;43493;53.098;6.064;2022-10-13T06:25:49;48.13;;;27.37;;
57663;SDS011;43493;53.098;6.064;2022-10-13T06:28:17;46.40;;;28.57;;
57663;SDS011;43493;53.098;6.064;2022-10-13T06:30:46;46.77;;;30.60;;
57663;SDS011;43493;53.098;6.064;2022-10-13T06:33:18;53.43;;;31.60;;
57663;SDS011;43493;53.098;6.064;2022-10-13T06:35:44;47.73;;;30.30;;
57663;SDS011;43493;53.098;6.064;2022-10-13T06:38:10;54.43;;;31.13;;
57663;SDS011;43493;53.098;6.064;2022-10-13T06:40:36;48.20;;;30.37;;
57663;SDS011;43493;53.098;6.064;2022-10-13T06:43:01;52.10;;;31.97;;
57663;SDS011;43493;53.098;6.064;2022-10-13T06:45:27;46.73;;;29.90;;
57663;SDS011;43493;53.098;6.064;2022-10-13T06:47:53;49.70;;;31.93;;
57663;SDS011;43493;53.098;6.064;2022-10-13T06:50:20;53.23;;;31.40;;
57663;SDS011;43493;53.098;6.064;2022-10-13T06:52:48;43.47;;;29.63;;
57663;SDS011;43493;53.098;6.064;2022-10-13T06:55:14;47.17;;;30.93;;
57663;SDS011;43493;53.098;6.064;2022-10-13T06:57:40;45.57;;;30.00;;
57663;SDS011;43493;53.098;6.064;2022-10-13T07:00:06;48.97;;;31.97;;
57663;SDS011;43493;53.098;6.064;2022-10-13T07:02:33;36.60;;;27.13;;
57663;SDS011;43493;53.098;6.064;2022-10-13T07:04:59;39.43;;;28.40;;
57663;SDS011;43493;53.098;6.064;2022-10-13T07:07:24;48.70;;;29.87;;
57663;SDS011;43493;53.098;6.064;2022-10-13T07:09:50;44.17;;;29.70;;
57663;SDS011;43493;53.098;6.064;2022-10-13T07:12:16;42.50;;;27.30;;
57663;SDS011;43493;53.098;6.064;2022-10-13T07:14:42;39.73;;;26.70;;
57663;SDS011;43493;53.098;6.064;2022-10-13T07:17:07;44.27;;;28.60;;
57663;SDS011;43493;53.098;6.064;2022-10-13T07:19:33;43.60;;;29.73;;
57663;SDS011;43493;53.098;6.064;2022-10-13T07:21:59;46.87;;;30.83;;
57663;SDS011;43493;53.098;6.064;2022-10-13T07:24:24;40.33;;;27.00;;
57663;SDS011;43493;53.098;6.064;2022-10-13T07:26:50;43.93;;;30.07;;
57663;SDS011;43493;53.098;6.064;2022-10-13T07:29:16;47.83;;;29.87;;
57663;SDS011;43493;53.098;6.064;2022-10-13T07:31:42;45.87;;;31.37;;
57663;SDS011;43493;53.098;6.064;2022-10-13T07:34:09;48.77;;;31.00;;
57663;SDS011;43493;53.098;6.064;2022-10-13T07:36:35;46.70;;;27.87;;
57663;SDS011;43493;53.098;6.064;2022-10-13T07:39:04;47.87;;;30.53;;
57663;SDS011;43493;53.098;6.064;2022-10-13T07:41:31;40.83;;;28.77;;
57663;SDS011;43493;53.098;6.064;2022-10-13T07:43:57;50.27;;;33.60;;
57663;SDS011;43493;53.098;6.064;2022-10-13T07:46:23;44.90;;;29.80;;
57663;SDS011;43493;53.098;6.064;2022-10-13T07:48:50;43.67;;;29.47;;
57663;SDS011;43493;53.098;6.064;2022-10-13T07:51:18;45.07;;;29.83;;
57663;SDS011;43493;53.098;6.064;2022-10-13T07:53:44;44.13;;;28.03;;
57663;SDS011;43493;53.098;6.064;2022-10-13T07:56:11;44.10;;;30.13;;
57663;SDS011;43493;53.098;6.064;2022-10-13T07:58:39;40.03;;;28.20;;
57663;SDS011;43493;53.098;6.064;2022-10-13T08:01:06;40.17;;;30.10;;
57663;SDS011;43493;53.098;6.064;2022-10-13T08:03:32;39.97;;;29.20;;
57663;SDS011;43493;53.098;6.064;2022-10-13T08:05:58;43.50;;;28.67;;
57663;SDS011;43493;53.098;6.064;2022-10-13T08:08:25;45.83;;;28.90;;
57663;SDS011;43493;53.098;6.064;2022-10-13T08:10:51;43.63;;;27.97;;
57663;SDS011;43493;53.098;6.064;2022-10-13T08:13:17;45.13;;;30.73;;
57663;SDS011;43493;53.098;6.064;2022-10-13T08:15:43;47.93;;;29.77;;
57663;SDS011;43493;53.098;6.064;2022-10-13T08:18:09;45.83;;;32.03;;
57663;SDS011;43493;53.098;6.064;2022-10-13T08:20:40;48.47;;;29.97;;
57663;SDS011;43493;53.098;6.064;2022-10-13T08:23:08;50.43;;;30.57;;
57663;SDS011;43493;53.098;6.064;2022-10-13T08:25:37;48.07;;;31.23;;
57663;SDS011;43493;53.098;6.064;2022-10-13T08:28:16;49.60;;;32.63;;
57663;SDS011;43493;53.098;6.064;2022-10-13T08:30:43;49.13;;;33.47;;
57663;SDS011;43493;53.098;6.064;2022-10-13T08:33:09;50.07;;;33.50;;
57663;SDS011;43493;53.098;6.064;2022-10-13T08:35:35;48.20;;;32.97;;
57663;SDS011;43493;53.098;6.064;2022-10-13T08:38:01;44.07;;;30.43;;
57663;SDS011;43493;53.098;6.064;2022-10-13T08:40:27;50.33;;;32.70;;
57663;SDS011;43493;53.098;6.064;2022-10-13T08:42:52;49.27;;;29.57;;
57663;SDS011;43493;53.098;6.064;2022-10-13T08:45:20;46.63;;;32.00;;
57663;SDS011;43493;53.098;6.064;2022-10-13T08:48:12;59.13;;;36.53;;
57663;SDS011;43493;53.098;6.064;2022-10-13T08:50:42;51.90;;;32.43;;
57663;SDS011;43493;53.098;6.064;2022-10-13T08:55:44;44.77;;;31.90;;
57663;SDS011;43493;53.098;6.064;2022-10-13T08:58:18;49.80;;;32.93;;
57663;SDS011;43493;53.098;6.064;2022-10-13T09:01:23;48.37;;;31.37;;
57663;SDS011;43493;53.098;6.064;2022-10-13T09:06:35;46.37;;;30.23;;
57663;SDS011;43493;53.098;6.064;2022-10-13T09:09:06;51.60;;;37.23;;
57663;SDS011;43493;53.098;6.064;2022-10-13T09:11:42;54.63;;;34.53;;
57663;SDS011;43493;53.098;6.064;2022-10-13T09:14:11;47.60;;;32.83;;
57663;SDS011;43493;53.098;6.064;2022-10-13T09:16:48;48.73;;;33.60;;
57663;SDS011;43493;53.098;6.064;2022-10-13T09:19:28;49.67;;;33.97;;
57663;SDS011;43493;53.098;6.064;2022-10-13T09:32:49;46.07;;;30.53;;
57663;SDS011;43493;53.098;6.064;2022-10-13T09:35:21;50.90;;;32.23;;
57663;SDS011;43493;53.098;6.064;2022-10-13T09:40:40;52.37;;;35.30;;
57663;SDS011;43493;53.098;6.064;2022-10-13T09:43:28;50.13;;;32.80;;
57663;SDS011;43493;53.098;6.064;2022-10-13T09:45:54;49.40;;;31.90;;
57663;SDS011;43493;53.098;6.064;2022-10-13T09:48:27;53.77;;;33.10;;
57663;SDS011;43493;53.098;6.064;2022-10-13T09:50:56;42.92;;;30.55;;
57663;SDS011;43493;53.098;6.064;2022-10-13T09:53:28;42.33;;;29.43;;
57663;SDS011;43493;53.098;6.064;2022-10-13T09:58:54;50.53;;;32.47;;
57663;SDS011;43493;53.098;6.064;2022-10-13T10:01:27;45.97;;;32.23;;
57663;SDS011;43493;53.098;6.064;2022-10-13T10:03:58;46.93;;;31.87;;
57663;SDS011;43493;53.098;6.064;2022-10-13T10:06:28;45.77;;;31.27;;
57663;SDS011;43493;53.098;6.064;2022-10-13T10:14:01;42.53;;;28.60;;
57663;SDS011;43493;53.098;6.064;2022-10-13T10:16:42;41.30;;;29.50;;
57663;SDS011;43493;53.098;6.064;2022-10-13T10:19:22;41.30;;;27.57;;
57663;SDS011;43493;53.098;6.064;2022-10-13T10:21:59;47.00;;;29.97;;
57663;SDS011;43493;53.098;6.064;2022-10-13T10:27:27;42.27;;;28.87;;
57663;SDS011;43493;53.098;6.064;2022-10-13T10:30:01;44.80;;;29.80;;
57663;SDS011;43493;53.098;6.064;2022-10-13T10:35:39;39.37;;;28.27;;
57663;SDS011;43493;53.098;6.064;2022-10-13T10:40:39;42.93;;;29.00;;
57663;SDS011;43493;53.098;6.064;2022-10-13T10:46:17;40.47;;;28.07;;
57663;SDS011;43493;53.098;6.064;2022-10-13T10:49:03;37.97;;;27.13;;
57663;SDS011;43493;53.098;6.064;2022-10-13T10:51:47;39.40;;;27.70;;
57663;SDS011;43493;53.098;6.064;2022-10-13T10:56:51;36.42;;;26.13;;
57663;SDS011;43493;53.098;6.064;2022-10-13T10:59:50;43.93;;;29.37;;
57663;SDS011;43493;53.098;6.064;2022-10-13T11:02:36;35.20;;;25.93;;
57663;SDS011;43493;53.098;6.064;2022-10-13T11:05:24;32.83;;;25.37;;
57663;SDS011;43493;53.098;6.064;2022-10-13T11:07:55;33.47;;;25.57;;
57663;SDS011;43493;53.098;6.064;2022-10-13T11:10:22;33.73;;;24.53;;
57663;SDS011;43493;53.098;6.064;2022-10-13T11:17:55;34.10;;;25.73;;
57663;SDS011;43493;53.098;6.064;2022-10-13T11:30:53;29.10;;;22.25;;
57663;SDS011;43493;53.098;6.064;2022-10-13T11:39:46;23.77;;;20.10;;
57663;SDS011;43493;53.098;6.064;2022-10-13T11:55:42;20.90;;;16.00;;
57663;SDS011;43493;53.098;6.064;2022-10-13T12:00:50;20.70;;;15.47;;
57663;SDS011;43493;53.098;6.064;2022-10-13T12:05:56;20.97;;;15.87;;
57663;SDS011;43493;53.098;6.064;2022-10-13T12:08:29;22.50;;;16.73;;
57663;SDS011;43493;53.098;6.064;2022-10-13T12:10:57;19.10;;;15.17;;
57663;SDS011;43493;53.098;6.064;2022-10-13T12:13:28;20.40;;;15.77;;
57663;SDS011;43493;53.098;6.064;2022-10-13T12:15:56;23.27;;;15.83;;
57663;SDS011;43493;53.098;6.064;2022-10-13T12:18:28;19.07;;;15.43;;
57663;SDS011;43493;53.098;6.064;2022-10-13T12:20:59;18.83;;;15.10;;
57663;SDS011;43493;53.098;6.064;2022-10-13T12:23:33;20.53;;;14.23;;
57663;SDS011;43493;53.098;6.064;2022-10-13T12:25:59;19.40;;;14.67;;
57663;SDS011;43493;53.098;6.064;2022-10-13T12:28:26;17.73;;;13.40;;
57663;SDS011;43493;53.098;6.064;2022-10-13T12:30:56;15.77;;;13.40;;
57663;SDS011;43493;53.098;6.064;2022-10-13T12:33:33;17.93;;;13.27;;
57663;SDS011;43493;53.098;6.064;2022-10-13T12:38:41;17.30;;;13.40;;
57663;SDS011;43493;53.098;6.064;2022-10-13T12:41:17;15.67;;;12.33;;
57663;SDS011;43493;53.098;6.064;2022-10-13T12:43:53;16.90;;;12.80;;
57663;SDS011;43493;53.098;6.064;2022-10-13T12:49:15;17.67;;;13.80;;
57663;SDS011;43493;53.098;6.064;2022-10-13T12:51:45;16.33;;;13.33;;
57663;SDS011;43493;53.098;6.064;2022-10-13T12:54:17;17.93;;;13.33;;
57663;SDS011;43493;53.098;6.064;2022-10-13T12:56:48;16.50;;;12.20;;
57663;SDS011;43493;53.098;6.064;2022-10-13T12:59:17;17.67;;;12.80;;
57663;SDS011;43493;53.098;6.064;2022-10-13T13:01:44;15.17;;;11.37;;
57663;SDS011;43493;53.098;6.064;2022-10-13T13:09:24;13.07;;;9.50;;
57663;SDS011;43493;53.098;6.064;2022-10-13T13:12:04;13.07;;;9.33;;
57663;SDS011;43493;53.098;6.064;2022-10-13T13:17:05;12.73;;;9.23;;
57663;SDS011;43493;53.098;6.064;2022-10-13T13:19:40;13.93;;;9.80;;
57663;SDS011;43493;53.098;6.064;2022-10-13T13:22:07;13.20;;;9.13;;
57663;SDS011;43493;53.098;6.064;2022-10-13T13:24:33;16.10;;;11.43;;
57663;SDS011;43493;53.098;6.064;2022-10-13T13:27:00;18.47;;;12.80;;
57663;SDS011;43493;53.098;6.064;2022-10-13T13:29:45;18.43;;;13.87;;
57663;SDS011;43493;53.098;6.064;2022-10-13T13:32:12;19.17;;;13.60;;
57663;SDS011;43493;53.098;6.064;2022-10-13T13:34:39;19.97;;;14.50;;
57663;SDS011;43493;53.098;6.064;2022-10-13T13:37:12;23.00;;;15.03;;
57663;SDS011;43493;53.098;6.064;2022-10-13T13:39:44;18.77;;;13.80;;
57663;SDS011;43493;53.098;6.064;2022-10-13T13:42:11;20.03;;;15.07;;
57663;SDS011;43493;53.098;6.064;2022-10-13T13:44:39;18.30;;;13.83;;
57663;SDS011;43493;53.098;6.064;2022-10-13T13:47:07;19.27;;;15.40;;
57663;SDS011;43493;53.098;6.064;2022-10-13T13:49:40;20.03;;;15.63;;
57663;SDS011;43493;53.098;6.064;2022-10-13T13:52:06;19.53;;;15.63;;
57663;SDS011;43493;53.098;6.064;2022-10-13T13:54:32;21.60;;;15.57;;
57663;SDS011;43493;53.098;6.064;2022-10-13T13:56:58;22.23;;;17.47;;
57663;SDS011;43493;53.098;6.064;2022-10-13T13:59:24;24.03;;;18.10;;
57663;SDS011;43493;53.098;6.064;2022-10-13T14:01:50;23.47;;;17.27;;
57663;SDS011;43493;53.098;6.064;2022-10-13T14:04:16;20.37;;;16.77;;
57663;SDS011;43493;53.098;6.064;2022-10-13T14:06:42;24.13;;;18.10;;
57663;SDS011;43493;53.098;6.064;2022-10-13T14:09:08;23.67;;;17.63;;
57663;SDS011;43493;53.098;6.064;2022-10-13T14:11:34;22.10;;;17.33;;
57663;SDS011;43493;53.098;6.064;2022-10-13T14:14:00;20.03;;;16.83;;
57663;SDS011;43493;53.098;6.064;2022-10-13T14:16:27;25.33;;;16.47;;
57663;SDS011;43493;53.098;6.064;2022-10-13T14:18:55;18.63;;;16.33;;
57663;SDS011;43493;53.098;6.064;2022-10-13T14:21:21;21.67;;;16.37;;
57663;SDS011;43493;53.098;6.064;2022-10-13T14:23:47;21.10;;;16.20;;
57663;SDS011;43493;53.098;6.064;2022-10-13T14:26:13;20.27;;;16.67;;
57663;SDS011;43493;53.098;6.064;2022-10-13T14:28:40;21.00;;;16.57;;
57663;SDS011;43493;53.098;6.064;2022-10-13T14:31:06;21.07;;;15.27;;
57663;SDS011;43493;53.098;6.064;2022-10-13T14:33:32;17.03;;;13.97;;
57663;SDS011;43493;53.098;6.064;2022-10-13T14:35:59;19.90;;;15.07;;
57663;SDS011;43493;53.098;6.064;2022-10-13T14:38:25;20.00;;;14.43;;
57663;SDS011;43493;53.098;6.064;2022-10-13T14:40:51;19.47;;;15.03;;
57663;SDS011;43493;53.098;6.064;2022-10-13T14:43:18;19.83;;;14.97;;
57663;SDS011;43493;53.098;6.064;2022-10-13T14:45:44;20.70;;;14.67;;
57663;SDS011;43493;53.098;6.064;2022-10-13T14:48:10;21.00;;;14.20;;
57663;SDS011;43493;53.098;6.064;2022-10-13T14:50:36;20.67;;;14.90;;
57663;SDS011;43493;53.098;6.064;2022-10-13T14:53:02;18.80;;;13.97;;
57663;SDS011;43493;53.098;6.064;2022-10-13T14:55:29;17.70;;;14.73;;
57663;SDS011;43493;53.098;6.064;2022-10-13T14:57:56;20.47;;;14.00;;
57663;SDS011;43493;53.098;6.064;2022-10-13T15:00:22;18.37;;;13.20;;
57663;SDS011;43493;53.098;6.064;2022-10-13T15:02:48;17.97;;;13.33;;
57663;SDS011;43493;53.098;6.064;2022-10-13T15:05:14;21.30;;;14.90;;
57663;SDS011;43493;53.098;6.064;2022-10-13T15:07:40;22.37;;;14.23;;
57663;SDS011;43493;53.098;6.064;2022-10-13T15:10:06;19.77;;;13.40;;
57663;SDS011;43493;53.098;6.064;2022-10-13T15:12:32;20.47;;;15.37;;
57663;SDS011;43493;53.098;6.064;2022-10-13T15:14:58;16.87;;;13.07;;
57663;SDS011;43493;53.098;6.064;2022-10-13T15:17:25;20.27;;;13.90;;
57663;SDS011;43493;53.098;6.064;2022-10-13T15:19:52;18.60;;;13.90;;
57663;SDS011;43493;53.098;6.064;2022-10-13T15:22:18;18.67;;;14.60;;
57663;SDS011;43493;53.098;6.064;2022-10-13T15:24:44;18.77;;;14.50;;
57663;SDS011;43493;53.098;6.064;2022-10-13T15:27:10;18.50;;;14.50;;
57663;SDS011;43493;53.098;6.064;2022-10-13T15:29:36;19.90;;;15.37;;
57663;SDS011;43493;53.098;6.064;2022-10-13T15:32:07;22.00;;;15.60;;
57663;SDS011;43493;53.098;6.064;2022-10-13T15:34:33;21.47;;;15.93;;
57663;SDS011;43493;53.098;6.064;2022-10-13T15:36:59;22.03;;;16.03;;
57663;SDS011;43493;53.098;6.064;2022-10-13T15:39:25;19.17;;;16.07;;
57663;SDS011;43493;53.098;6.064;2022-10-13T15:41:51;25.57;;;19.50;;
57663;SDS011;43493;53.098;6.064;2022-10-13T15:44:17;21.03;;;16.97;;
57663;SDS011;43493;53.098;6.064;2022-10-13T15:46:45;21.30;;;16.27;;
57663;SDS011;43493;53.098;6.064;2022-10-13T15:49:11;26.07;;;20.37;;
57663;SDS011;43493;53.098;6.064;2022-10-13T15:51:37;21.33;;;17.47;;
57663;SDS011;43493;53.098;6.064;2022-10-13T15:54:03;20.40;;;15.73;;
57663;SDS011;43493;53.098;6.064;2022-10-13T15:56:29;20.07;;;15.90;;
57663;SDS011;43493;53.098;6.064;2022-10-13T15:58:55;24.40;;;18.43;;
57663;SDS011;43493;53.098;6.064;2022-10-13T16:01:21;19.90;;;17.17;;
57663;SDS011;43493;53.098;6.064;2022-10-13T16:03:47;18.90;;;15.43;;
57663;SDS011;43493;53.098;6.064;2022-10-13T16:06:13;19.97;;;16.77;;
57663;SDS011;43493;53.098;6.064;2022-10-13T16:08:40;22.73;;;16.90;;
57663;SDS011;43493;53.098;6.064;2022-10-13T16:11:13;19.90;;;17.80;;
57663;SDS011;43493;53.098;6.064;2022-10-13T16:13:40;22.07;;;17.27;;
57663;SDS011;43493;53.098;6.064;2022-10-13T16:16:06;23.63;;;17.83;;
57663;SDS011;43493;53.098;6.064;2022-10-13T16:18:34;26.30;;;17.37;;
57663;SDS011;43493;53.098;6.064;2022-10-13T16:21:09;20.13;;;16.40;;
57663;SDS011;43493;53.098;6.064;2022-10-13T16:23:36;23.83;;;18.23;;
57663;SDS011;43493;53.098;6.064;2022-10-13T16:26:03;23.47;;;18.47;;
57663;SDS011;43493;53.098;6.064;2022-10-13T16:28:29;24.43;;;19.90;;
57663;SDS011;43493;53.098;6.064;2022-10-13T16:30:55;26.43;;;18.53;;
57663;SDS011;43493;53.098;6.064;2022-10-13T16:33:21;26.03;;;18.83;;
57663;SDS011;43493;53.098;6.064;2022-10-13T16:35:47;24.70;;;19.37;;